WMKM/MKZ METAR and TAF weather

Enter ICAO airport designator
Station Type Date Time Source
WMKM METAR 2021/05/11 01:00 UTC NOAA

WMKM 110100Z 05004KT 330V110 9999 FEW017CB 29/25 Q1008


Station Type Date Time Source
WMKM Decoded METAR 2021/05/11 01:00 UTC NOAA

Malacca, Malaysia (WMKM) 02-16N 102-15E 9M
May 10, 2021 - 09:00 PM EDT / 2021.05.11 0100 UTC
Wind: from the NE (050 degrees) at 5 MPH (4 KT) (direction variable):0
Visibility: greater than 7 mile(s):0
Sky conditions: mostly clear
Weather: Cumulonimbus clouds observed
Temperature: 84 F (29 C)
Dew Point: 77 F (25 C)
Relative Humidity: 79%
Pressure (altimeter): 29.77 in. Hg (1008 hPa)
ob: WMKM 110100Z 05004KT 330V110 9999 FEW017CB 29/25 Q1008
cycle: 1

Station Type Date Time Source
WMKM TAF 2021/05/10 18:00 UTC NOAA

TAF WMKM 101700Z 1018/1118 VRB02KT 9999 FEW028
TEMPO 1106/1110 4000 TSRA FEW017CB SCT020

Example: see airport list